sensor_id;sensor_type;location;lat;lon;timestamp;pressure;altitude;pressure_sealevel;temperature;humidity
47742;BME280;33504;52.066;6.096;2024-03-02T00:01:10;99853.58;;;9.33;42.37
47742;BME280;33504;52.066;6.096;2024-03-02T00:03:38;99845.86;;;9.24;42.37
47742;BME280;33504;52.066;6.096;2024-03-02T00:06:05;99834.13;;;9.35;41.82
47742;BME280;33504;52.066;6.096;2024-03-02T00:08:34;99839.46;;;9.66;41.74
47742;BME280;33504;52.066;6.096;2024-03-02T00:11:01;99846.37;;;9.27;41.99
47742;BME280;33504;52.066;6.096;2024-03-02T00:13:29;99840.97;;;9.36;42.00
47742;BME280;33504;52.066;6.096;2024-03-02T00:15:57;99841.21;;;9.33;42.17
47742;BME280;33504;52.066;6.096;2024-03-02T00:18:26;99830.11;;;9.33;41.96
47742;BME280;33504;52.066;6.096;2024-03-02T00:20:54;99838.05;;;9.70;41.59
47742;BME280;33504;52.066;6.096;2024-03-02T00:23:23;99838.80;;;9.28;42.17
47742;BME280;33504;52.066;6.096;2024-03-02T00:25:52;99831.98;;;9.06;42.52
47742;BME280;33504;52.066;6.096;2024-03-02T00:28:20;99830.93;;;8.76;42.73
47742;BME280;33504;52.066;6.096;2024-03-02T00:30:58;99826.42;;;8.94;42.30
47742;BME280;33504;52.066;6.096;2024-03-02T00:33:27;99831.43;;;8.92;42.28
47742;BME280;33504;52.066;6.096;2024-03-02T00:35:57;99830.06;;;9.25;42.48
47742;BME280;33504;52.066;6.096;2024-03-02T00:38:25;99823.76;;;9.06;42.48
47742;BME280;33504;52.066;6.096;2024-03-02T00:40:52;99825.27;;;9.26;42.03
47742;BME280;33504;52.066;6.096;2024-03-02T00:43:42;99814.45;;;8.95;42.75
47742;BME280;33504;52.066;6.096;2024-03-02T00:46:11;99823.42;;;9.06;42.54
47742;BME280;33504;52.066;6.096;2024-03-02T00:48:38;99818.47;;;9.20;42.50
47742;BME280;33504;52.066;6.096;2024-03-02T00:51:05;99808.78;;;9.56;42.07
47742;BME280;33504;52.066;6.096;2024-03-02T00:53:32;99815.23;;;9.51;41.33
47742;BME280;33504;52.066;6.096;2024-03-02T00:56:01;99820.00;;;9.33;42.13
47742;BME280;33504;52.066;6.096;2024-03-02T00:58:28;99817.16;;;9.35;42.39
47742;BME280;33504;52.066;6.096;2024-03-02T01:00:56;99826.85;;;9.22;42.22
47742;BME280;33504;52.066;6.096;2024-03-02T01:03:23;99841.75;;;9.00;42.50
47742;BME280;33504;52.066;6.096;2024-03-02T01:05:50;99827.64;;;9.22;42.57
47742;BME280;33504;52.066;6.096;2024-03-02T01:08:17;99830.74;;;9.09;42.85
47742;BME280;33504;52.066;6.096;2024-03-02T01:10:44;99840.42;;;9.00;42.78
47742;BME280;33504;52.066;6.096;2024-03-02T01:13:11;99834.84;;;8.89;42.58
47742;BME280;33504;52.066;6.096;2024-03-02T01:15:37;99821.58;;;9.06;42.70
47742;BME280;33504;52.066;6.096;2024-03-02T01:18:04;99831.86;;;9.11;42.09
47742;BME280;33504;52.066;6.096;2024-03-02T01:20:31;99837.85;;;8.93;42.60
47742;BME280;33504;52.066;6.096;2024-03-02T01:22:59;99830.82;;;9.11;42.54
47742;BME280;33504;52.066;6.096;2024-03-02T01:25:25;99829.25;;;9.54;41.91
47742;BME280;33504;52.066;6.096;2024-03-02T01:27:52;99850.57;;;9.47;42.21
47742;BME280;33504;52.066;6.096;2024-03-02T01:30:19;99849.43;;;8.48;43.54
47742;BME280;33504;52.066;6.096;2024-03-02T01:32:46;99846.73;;;9.16;42.68
47742;BME280;33504;52.066;6.096;2024-03-02T01:35:13;99863.14;;;8.63;43.51
47742;BME280;33504;52.066;6.096;2024-03-02T01:37:40;99869.16;;;8.74;43.04
47742;BME280;33504;52.066;6.096;2024-03-02T01:40:09;99867.82;;;8.85;43.49
47742;BME280;33504;52.066;6.096;2024-03-02T01:42:37;99870.10;;;8.75;43.59
47742;BME280;33504;52.066;6.096;2024-03-02T01:45:05;99889.48;;;9.14;43.32
47742;BME280;33504;52.066;6.096;2024-03-02T01:47:33;99899.51;;;9.58;42.47
47742;BME280;33504;52.066;6.096;2024-03-02T01:50:01;99904.33;;;9.51;42.22
47742;BME280;33504;52.066;6.096;2024-03-02T01:52:29;99901.09;;;9.03;42.68
47742;BME280;33504;52.066;6.096;2024-03-02T01:54:57;99901.07;;;9.38;41.81
47742;BME280;33504;52.066;6.096;2024-03-02T01:57:24;99906.96;;;9.94;41.31
47742;BME280;33504;52.066;6.096;2024-03-02T01:59:51;99905.38;;;10.20;41.13
47742;BME280;33504;52.066;6.096;2024-03-02T02:02:18;99905.69;;;9.57;41.53
47742;BME280;33504;52.066;6.096;2024-03-02T02:04:46;99903.43;;;9.64;41.55
47742;BME280;33504;52.066;6.096;2024-03-02T02:07:14;99903.91;;;9.76;41.62
47742;BME280;33504;52.066;6.096;2024-03-02T02:09:41;99891.50;;;10.11;41.35
47742;BME280;33504;52.066;6.096;2024-03-02T02:12:09;99892.71;;;9.61;42.11
47742;BME280;33504;52.066;6.096;2024-03-02T02:14:37;99879.57;;;9.91;41.89
47742;BME280;33504;52.066;6.096;2024-03-02T02:17:04;99878.80;;;9.50;42.44
47742;BME280;33504;52.066;6.096;2024-03-02T02:19:31;99868.95;;;10.29;42.23
47742;BME280;33504;52.066;6.096;2024-03-02T02:21:58;99868.67;;;9.68;42.58
47742;BME280;33504;52.066;6.096;2024-03-02T02:24:25;99867.41;;;9.56;42.92
47742;BME280;33504;52.066;6.096;2024-03-02T02:26:51;99863.82;;;9.97;42.75
47742;BME280;33504;52.066;6.096;2024-03-02T02:29:18;99868.44;;;9.89;42.45
47742;BME280;33504;52.066;6.096;2024-03-02T02:31:45;99869.25;;;9.87;42.54
47742;BME280;33504;52.066;6.096;2024-03-02T02:34:12;99870.15;;;9.74;42.62
47742;BME280;33504;52.066;6.096;2024-03-02T02:36:40;99870.48;;;9.30;43.34
47742;BME280;33504;52.066;6.096;2024-03-02T02:39:13;99867.52;;;9.17;43.72
47742;BME280;33504;52.066;6.096;2024-03-02T02:41:41;99862.42;;;8.96;43.76
47742;BME280;33504;52.066;6.096;2024-03-02T02:44:08;99858.36;;;9.76;43.42
47742;BME280;33504;52.066;6.096;2024-03-02T02:46:35;99858.18;;;9.43;43.67
47742;BME280;33504;52.066;6.096;2024-03-02T02:49:02;99857.17;;;9.61;43.43
47742;BME280;33504;52.066;6.096;2024-03-02T02:51:29;99853.13;;;9.72;42.97
47742;BME280;33504;52.066;6.096;2024-03-02T02:53:56;99854.98;;;9.91;43.03
47742;BME280;33504;52.066;6.096;2024-03-02T02:56:23;99852.11;;;9.67;42.99
47742;BME280;33504;52.066;6.096;2024-03-02T02:58:50;99848.93;;;9.99;42.51
47742;BME280;33504;52.066;6.096;2024-03-02T03:01:17;99859.63;;;9.98;42.67
47742;BME280;33504;52.066;6.096;2024-03-02T03:03:45;99866.20;;;10.01;42.50
47742;BME280;33504;52.066;6.096;2024-03-02T03:06:12;99862.67;;;10.05;42.40
47742;BME280;33504;52.066;6.096;2024-03-02T03:08:39;99863.64;;;10.22;42.38
47742;BME280;33504;52.066;6.096;2024-03-02T03:11:06;99856.30;;;10.11;42.55
47742;BME280;33504;52.066;6.096;2024-03-02T03:13:34;99859.64;;;9.61;42.82
47742;BME280;33504;52.066;6.096;2024-03-02T03:16:01;99856.50;;;9.66;42.92
47742;BME280;33504;52.066;6.096;2024-03-02T03:18:29;99859.73;;;9.56;43.44
47742;BME280;33504;52.066;6.096;2024-03-02T03:20:56;99854.58;;;9.34;43.68
47742;BME280;33504;52.066;6.096;2024-03-02T03:23:22;99855.04;;;9.71;43.31
47742;BME280;33504;52.066;6.096;2024-03-02T03:25:49;99854.74;;;9.95;43.12
47742;BME280;33504;52.066;6.096;2024-03-02T03:28:16;99854.38;;;9.02;43.78
47742;BME280;33504;52.066;6.096;2024-03-02T03:30:43;99854.44;;;9.73;42.96
47742;BME280;33504;52.066;6.096;2024-03-02T03:33:10;99855.71;;;9.15;43.60
47742;BME280;33504;52.066;6.096;2024-03-02T03:35:36;99865.03;;;9.56;43.28
47742;BME280;33504;52.066;6.096;2024-03-02T03:38:03;99868.44;;;9.46;43.18
47742;BME280;33504;52.066;6.096;2024-03-02T03:40:31;99867.46;;;9.79;42.41
47742;BME280;33504;52.066;6.096;2024-03-02T03:42:58;99868.02;;;9.82;42.21
47742;BME280;33504;52.066;6.096;2024-03-02T03:45:25;99867.75;;;9.77;42.19
47742;BME280;33504;52.066;6.096;2024-03-02T03:47:53;99883.42;;;9.06;43.08
47742;BME280;33504;52.066;6.096;2024-03-02T03:50:20;99886.60;;;9.49;42.97
47742;BME280;33504;52.066;6.096;2024-03-02T03:52:47;99885.48;;;9.25;43.53
47742;BME280;33504;52.066;6.096;2024-03-02T03:55:13;99890.43;;;9.69;42.46
47742;BME280;33504;52.066;6.096;2024-03-02T03:57:41;99883.59;;;9.68;42.42
47742;BME280;33504;52.066;6.096;2024-03-02T04:00:09;99885.20;;;9.49;43.11
47742;BME280;33504;52.066;6.096;2024-03-02T04:02:36;99892.07;;;9.10;43.47
47742;BME280;33504;52.066;6.096;2024-03-02T04:05:04;99901.27;;;9.54;43.20
47742;BME280;33504;52.066;6.096;2024-03-02T04:07:31;99899.12;;;9.34;43.33
47742;BME280;33504;52.066;6.096;2024-03-02T04:09:58;99907.03;;;9.27;43.74
47742;BME280;33504;52.066;6.096;2024-03-02T04:12:24;99901.89;;;9.61;43.64
47742;BME280;33504;52.066;6.096;2024-03-02T04:14:51;99896.10;;;8.84;44.49
47742;BME280;33504;52.066;6.096;2024-03-02T04:17:18;99906.17;;;9.22;43.82
47742;BME280;33504;52.066;6.096;2024-03-02T04:19:45;99892.87;;;9.13;44.45
47742;BME280;33504;52.066;6.096;2024-03-02T04:22:12;99921.15;;;9.21;44.46
47742;BME280;33504;52.066;6.096;2024-03-02T04:24:38;99931.61;;;8.95;44.88
47742;BME280;33504;52.066;6.096;2024-03-02T04:27:05;99926.13;;;9.03;44.87
47742;BME280;33504;52.066;6.096;2024-03-02T04:29:32;99920.49;;;9.03;44.93
47742;BME280;33504;52.066;6.096;2024-03-02T04:31:59;99920.43;;;9.02;44.78
47742;BME280;33504;52.066;6.096;2024-03-02T04:34:26;99911.46;;;8.89;44.95
47742;BME280;33504;52.066;6.096;2024-03-02T04:36:53;99906.40;;;8.89;45.36
47742;BME280;33504;52.066;6.096;2024-03-02T04:39:20;99901.02;;;8.69;45.57
47742;BME280;33504;52.066;6.096;2024-03-02T04:41:47;99907.24;;;8.32;46.02
47742;BME280;33504;52.066;6.096;2024-03-02T04:44:13;99919.32;;;8.30;46.23
47742;BME280;33504;52.066;6.096;2024-03-02T04:46:40;99920.95;;;8.65;45.78
47742;BME280;33504;52.066;6.096;2024-03-02T04:49:07;99930.70;;;8.98;45.23
47742;BME280;33504;52.066;6.096;2024-03-02T04:51:34;99937.79;;;9.27;44.81
47742;BME280;33504;52.066;6.096;2024-03-02T04:54:01;99941.95;;;8.55;45.93
47742;BME280;33504;52.066;6.096;2024-03-02T04:56:27;99941.31;;;8.51;46.31
47742;BME280;33504;52.066;6.096;2024-03-02T04:58:54;99938.83;;;8.34;46.81
47742;BME280;33504;52.066;6.096;2024-03-02T05:01:21;99947.20;;;9.01;45.50
47742;BME280;33504;52.066;6.096;2024-03-02T05:03:48;99952.32;;;9.19;44.95
47742;BME280;33504;52.066;6.096;2024-03-02T05:06:15;99950.21;;;8.71;45.81
47742;BME280;33504;52.066;6.096;2024-03-02T05:08:42;99949.60;;;8.47;46.11
47742;BME280;33504;52.066;6.096;2024-03-02T05:11:08;99950.37;;;8.55;46.08
47742;BME280;33504;52.066;6.096;2024-03-02T05:13:36;99945.92;;;8.86;45.65
47742;BME280;33504;52.066;6.096;2024-03-02T05:16:04;99950.87;;;8.12;46.89
47742;BME280;33504;52.066;6.096;2024-03-02T05:18:31;99953.16;;;8.65;46.02
47742;BME280;33504;52.066;6.096;2024-03-02T05:20:58;99954.59;;;8.65;46.01
47742;BME280;33504;52.066;6.096;2024-03-02T05:23:25;99956.52;;;8.67;46.00
47742;BME280;33504;52.066;6.096;2024-03-02T05:25:52;99957.87;;;8.89;45.47
47742;BME280;33504;52.066;6.096;2024-03-02T05:28:19;99957.53;;;9.21;45.07
47742;BME280;33504;52.066;6.096;2024-03-02T05:30:45;99958.26;;;9.06;45.28
47742;BME280;33504;52.066;6.096;2024-03-02T05:33:12;99959.83;;;9.09;45.27
47742;BME280;33504;52.066;6.096;2024-03-02T05:35:39;99963.04;;;8.63;45.96
47742;BME280;33504;52.066;6.096;2024-03-02T05:38:06;99962.32;;;8.45;46.12
47742;BME280;33504;52.066;6.096;2024-03-02T05:40:33;99958.40;;;8.89;45.47
47742;BME280;33504;52.066;6.096;2024-03-02T05:43:00;99958.98;;;8.99;45.20
47742;BME280;33504;52.066;6.096;2024-03-02T05:45:26;99962.86;;;8.68;45.64
47742;BME280;33504;52.066;6.096;2024-03-02T05:47:53;99962.68;;;8.65;45.83
47742;BME280;33504;52.066;6.096;2024-03-02T05:50:20;99968.76;;;8.47;45.51
47742;BME280;33504;52.066;6.096;2024-03-02T05:52:47;99969.92;;;8.36;46.05
47742;BME280;33504;52.066;6.096;2024-03-02T05:55:14;99972.22;;;8.01;46.66
47742;BME280;33504;52.066;6.096;2024-03-02T05:57:41;99967.13;;;8.45;45.93
47742;BME280;33504;52.066;6.096;2024-03-02T06:00:08;99974.53;;;8.22;46.28
47742;BME280;33504;52.066;6.096;2024-03-02T06:02:39;99978.70;;;8.64;45.61
47742;BME280;33504;52.066;6.096;2024-03-02T06:05:06;99980.20;;;8.51;45.58
47742;BME280;33504;52.066;6.096;2024-03-02T06:07:33;99981.86;;;8.62;45.59
47742;BME280;33504;52.066;6.096;2024-03-02T06:10:00;99987.98;;;9.17;45.22
47742;BME280;33504;52.066;6.096;2024-03-02T06:12:27;99991.39;;;8.71;45.15
47742;BME280;33504;52.066;6.096;2024-03-02T06:14:54;99989.01;;;8.20;45.94
47742;BME280;33504;52.066;6.096;2024-03-02T06:17:20;99987.06;;;8.66;45.27
47742;BME280;33504;52.066;6.096;2024-03-02T06:19:47;99989.68;;;8.60;45.46
47742;BME280;33504;52.066;6.096;2024-03-02T06:22:14;99987.42;;;8.61;45.25
47742;BME280;33504;52.066;6.096;2024-03-02T06:24:41;99986.74;;;8.96;44.77
47742;BME280;33504;52.066;6.096;2024-03-02T06:27:08;99987.45;;;9.04;44.52
47742;BME280;33504;52.066;6.096;2024-03-02T06:29:34;99982.69;;;8.83;44.45
47742;BME280;33504;52.066;6.096;2024-03-02T06:32:01;99985.61;;;9.21;44.27
47742;BME280;33504;52.066;6.096;2024-03-02T06:34:29;99988.13;;;8.94;44.54
47742;BME280;33504;52.066;6.096;2024-03-02T06:36:56;99992.96;;;8.94;44.26
47742;BME280;33504;52.066;6.096;2024-03-02T06:39:23;99992.68;;;9.11;44.44
47742;BME280;33504;52.066;6.096;2024-03-02T06:41:49;99992.85;;;9.24;44.09
47742;BME280;33504;52.066;6.096;2024-03-02T06:44:16;99995.64;;;9.09;43.98
47742;BME280;33504;52.066;6.096;2024-03-02T06:46:43;100002.82;;;9.05;43.99
47742;BME280;33504;52.066;6.096;2024-03-02T06:49:10;100003.15;;;9.10;43.81
47742;BME280;33504;52.066;6.096;2024-03-02T06:51:37;100002.56;;;9.37;43.85
47742;BME280;33504;52.066;6.096;2024-03-02T06:54:04;100002.65;;;9.42;43.78
47742;BME280;33504;52.066;6.096;2024-03-02T06:56:30;100005.84;;;9.05;44.38
47742;BME280;33504;52.066;6.096;2024-03-02T06:58:57;100008.18;;;8.86;44.27
47742;BME280;33504;52.066;6.096;2024-03-02T07:01:24;100016.54;;;9.26;44.16
47742;BME280;33504;52.066;6.096;2024-03-02T07:03:51;100017.08;;;9.34;43.96
47742;BME280;33504;52.066;6.096;2024-03-02T07:06:18;100017.77;;;9.00;43.98
47742;BME280;33504;52.066;6.096;2024-03-02T07:08:45;100020.92;;;9.13;44.42
47742;BME280;33504;52.066;6.096;2024-03-02T07:11:11;100021.49;;;8.89;44.24
47742;BME280;33504;52.066;6.096;2024-03-02T07:13:38;100021.57;;;9.26;44.23
47742;BME280;33504;52.066;6.096;2024-03-02T07:16:05;100024.27;;;9.48;43.94
47742;BME280;33504;52.066;6.096;2024-03-02T07:18:33;100024.06;;;9.06;44.19
47742;BME280;33504;52.066;6.096;2024-03-02T07:21:00;100029.29;;;9.31;43.87
47742;BME280;33504;52.066;6.096;2024-03-02T07:23:26;100038.95;;;9.44;43.72
47742;BME280;33504;52.066;6.096;2024-03-02T07:25:54;100038.02;;;9.34;43.88
47742;BME280;33504;52.066;6.096;2024-03-02T07:28:21;100041.16;;;9.09;44.17
47742;BME280;33504;52.066;6.096;2024-03-02T07:30:57;100038.95;;;8.69;44.94
47742;BME280;33504;52.066;6.096;2024-03-02T07:33:24;100040.29;;;8.89;44.73
47742;BME280;33504;52.066;6.096;2024-03-02T07:35:51;100043.80;;;9.19;44.30
47742;BME280;33504;52.066;6.096;2024-03-02T07:38:18;100046.03;;;8.98;44.49
47742;BME280;33504;52.066;6.096;2024-03-02T07:40:45;100050.45;;;9.06;44.44
47742;BME280;33504;52.066;6.096;2024-03-02T07:43:12;100049.97;;;9.38;43.99
47742;BME280;33504;52.066;6.096;2024-03-02T07:45:39;100046.87;;;9.07;43.82
47742;BME280;33504;52.066;6.096;2024-03-02T07:48:06;100053.35;;;9.74;43.44
47742;BME280;33504;52.066;6.096;2024-03-02T07:50:33;100057.37;;;9.81;42.47
47742;BME280;33504;52.066;6.096;2024-03-02T07:53:00;100063.96;;;10.66;41.55
47742;BME280;33504;52.066;6.096;2024-03-02T07:55:27;100062.10;;;10.78;40.97
47742;BME280;33504;52.066;6.096;2024-03-02T07:57:53;100062.03;;;11.13;40.21
47742;BME280;33504;52.066;6.096;2024-03-02T08:00:21;100057.95;;;11.50;39.46
47742;BME280;33504;52.066;6.096;2024-03-02T08:02:48;100056.52;;;11.48;39.39
47742;BME280;33504;52.066;6.096;2024-03-02T08:05:16;100062.39;;;12.08;38.73
47742;BME280;33504;52.066;6.096;2024-03-02T08:07:44;100064.42;;;12.88;38.33
47742;BME280;33504;52.066;6.096;2024-03-02T08:10:11;100063.98;;;12.87;37.48
47742;BME280;33504;52.066;6.096;2024-03-02T08:12:38;100060.70;;;13.40;36.67
47742;BME280;33504;52.066;6.096;2024-03-02T08:15:07;100068.81;;;12.85;36.72
47742;BME280;33504;52.066;6.096;2024-03-02T08:17:34;100072.14;;;12.76;37.06
47742;BME280;33504;52.066;6.096;2024-03-02T08:20:01;100071.11;;;12.78;37.14
47742;BME280;33504;52.066;6.096;2024-03-02T08:22:29;100069.45;;;13.23;36.82
47742;BME280;33504;52.066;6.096;2024-03-02T08:24:56;100070.07;;;13.75;35.92
47742;BME280;33504;52.066;6.096;2024-03-02T08:27:23;100073.58;;;13.28;36.13
47742;BME280;33504;52.066;6.096;2024-03-02T08:29:50;100067.21;;;13.85;36.13
47742;BME280;33504;52.066;6.096;2024-03-02T08:32:17;100066.44;;;13.41;35.84
47742;BME280;33504;52.066;6.096;2024-03-02T08:34:44;100062.17;;;13.89;35.73
47742;BME280;33504;52.066;6.096;2024-03-02T08:37:11;100062.54;;;13.78;35.12
47742;BME280;33504;52.066;6.096;2024-03-02T08:39:38;100061.80;;;13.78;35.05
47742;BME280;33504;52.066;6.096;2024-03-02T08:42:06;100063.46;;;13.56;35.25
47742;BME280;33504;52.066;6.096;2024-03-02T08:44:33;100063.65;;;13.70;34.90
47742;BME280;33504;52.066;6.096;2024-03-02T08:47:01;100068.68;;;13.05;35.65
47742;BME280;33504;52.066;6.096;2024-03-02T08:49:29;100072.36;;;12.83;35.35
47742;BME280;33504;52.066;6.096;2024-03-02T08:51:56;100071.05;;;13.34;35.17
47742;BME280;33504;52.066;6.096;2024-03-02T08:54:24;100075.97;;;13.51;34.74
47742;BME280;33504;52.066;6.096;2024-03-02T08:56:51;100071.88;;;13.74;34.67
47742;BME280;33504;52.066;6.096;2024-03-02T08:59:19;100079.96;;;13.91;33.73
47742;BME280;33504;52.066;6.096;2024-03-02T09:01:46;100075.29;;;13.80;33.76
47742;BME280;33504;52.066;6.096;2024-03-02T09:04:14;100074.73;;;13.73;33.63
47742;BME280;33504;52.066;6.096;2024-03-02T09:06:41;100084.65;;;14.20;33.23
47742;BME280;33504;52.066;6.096;2024-03-02T09:09:09;100090.00;;;14.04;33.11
47742;BME280;33504;52.066;6.096;2024-03-02T09:11:36;100074.68;;;14.61;32.96
47742;BME280;33504;52.066;6.096;2024-03-02T09:14:04;100069.21;;;14.07;32.57
47742;BME280;33504;52.066;6.096;2024-03-02T09:16:31;100083.22;;;14.56;32.76
47742;BME280;33504;52.066;6.096;2024-03-02T09:18:59;100084.72;;;14.50;32.39
47742;BME280;33504;52.066;6.096;2024-03-02T09:21:26;100087.22;;;14.20;33.40
47742;BME280;33504;52.066;6.096;2024-03-02T09:23:54;100080.62;;;14.18;33.20
47742;BME280;33504;52.066;6.096;2024-03-02T09:26:21;100075.35;;;14.65;32.72
47742;BME280;33504;52.066;6.096;2024-03-02T09:28:47;100076.80;;;14.85;31.90
47742;BME280;33504;52.066;6.096;2024-03-02T09:31:15;100078.63;;;15.29;31.64
47742;BME280;33504;52.066;6.096;2024-03-02T09:33:42;100078.57;;;15.51;31.13
47742;BME280;33504;52.066;6.096;2024-03-02T09:36:17;100085.30;;;14.63;31.85
47742;BME280;33504;52.066;6.096;2024-03-02T09:38:43;100072.92;;;14.64;31.97
47742;BME280;33504;52.066;6.096;2024-03-02T09:41:10;100082.83;;;14.87;31.94
47742;BME280;33504;52.066;6.096;2024-03-02T09:43:38;100087.60;;;14.97;31.52
47742;BME280;33504;52.066;6.096;2024-03-02T09:46:05;100091.11;;;15.32;31.12
47742;BME280;33504;52.066;6.096;2024-03-02T09:48:33;100086.55;;;15.86;30.49
47742;BME280;33504;52.066;6.096;2024-03-02T09:51:01;100087.88;;;15.43;30.73
47742;BME280;33504;52.066;6.096;2024-03-02T09:53:31;100084.65;;;15.84;30.74
47742;BME280;33504;52.066;6.096;2024-03-02T09:55:59;100092.43;;;16.01;30.30
47742;BME280;33504;52.066;6.096;2024-03-02T09:58:26;100086.95;;;15.69;30.19
47742;BME280;33504;52.066;6.096;2024-03-02T10:00:54;100083.25;;;15.40;30.81
47742;BME280;33504;52.066;6.096;2024-03-02T10:03:23;100080.75;;;15.37;31.04
47742;BME280;33504;52.066;6.096;2024-03-02T10:05:50;100075.04;;;16.00;29.93
47742;BME280;33504;52.066;6.096;2024-03-02T10:08:17;100072.81;;;15.92;30.55
47742;BME280;33504;52.066;6.096;2024-03-02T10:10:45;100077.36;;;15.75;30.12
47742;BME280;33504;52.066;6.096;2024-03-02T10:13:13;100084.58;;;15.29;30.18
47742;BME280;33504;52.066;6.096;2024-03-02T10:15:41;100078.34;;;15.91;30.12
47742;BME280;33504;52.066;6.096;2024-03-02T10:18:09;100071.83;;;16.94;28.97
47742;BME280;33504;52.066;6.096;2024-03-02T10:20:37;100074.30;;;16.84;28.83
47742;BME280;33504;52.066;6.096;2024-03-02T10:23:12;100081.97;;;16.94;28.83
47742;BME280;33504;52.066;6.096;2024-03-02T10:25:39;100075.66;;;16.59;29.35
47742;BME280;33504;52.066;6.096;2024-03-02T10:28:07;100081.49;;;16.47;29.51
47742;BME280;33504;52.066;6.096;2024-03-02T10:30:34;100079.79;;;16.95;28.49
47742;BME280;33504;52.066;6.096;2024-03-02T10:33:01;100074.79;;;17.55;27.79
47742;BME280;33504;52.066;6.096;2024-03-02T10:35:29;100074.91;;;16.80;27.70
47742;BME280;33504;52.066;6.096;2024-03-02T10:37:59;100077.19;;;16.00;29.12
47742;BME280;33504;52.066;6.096;2024-03-02T10:40:26;100081.31;;;16.69;28.55
47742;BME280;33504;52.066;6.096;2024-03-02T10:42:53;100073.77;;;16.18;29.40
47742;BME280;33504;52.066;6.096;2024-03-02T10:45:21;100070.74;;;15.70;29.65
47742;BME280;33504;52.066;6.096;2024-03-02T10:47:49;100070.89;;;16.77;28.58
47742;BME280;33504;52.066;6.096;2024-03-02T10:50:17;100073.50;;;16.99;28.39
47742;BME280;33504;52.066;6.096;2024-03-02T10:52:44;100073.10;;;17.55;27.65
47742;BME280;33504;52.066;6.096;2024-03-02T10:55:12;100077.08;;;17.96;27.42
47742;BME280;33504;52.066;6.096;2024-03-02T10:57:52;100066.52;;;18.40;26.96
47742;BME280;33504;52.066;6.096;2024-03-02T11:00:20;100060.43;;;18.45;26.04
47742;BME280;33504;52.066;6.096;2024-03-02T11:02:51;100057.35;;;18.79;25.44
47742;BME280;33504;52.066;6.096;2024-03-02T11:05:26;100050.93;;;18.59;26.54
47742;BME280;33504;52.066;6.096;2024-03-02T11:07:57;100056.88;;;18.38;26.06
47742;BME280;33504;52.066;6.096;2024-03-02T11:10:28;100062.79;;;18.12;27.00
47742;BME280;33504;52.066;6.096;2024-03-02T11:13:01;100058.15;;;17.50;27.14
47742;BME280;33504;52.066;6.096;2024-03-02T11:15:29;100057.28;;;18.46;26.64
47742;BME280;33504;52.066;6.096;2024-03-02T11:17:57;100054.98;;;18.67;25.40
47742;BME280;33504;52.066;6.096;2024-03-02T11:20:25;100053.96;;;18.25;26.29
47742;BME280;33504;52.066;6.096;2024-03-02T11:22:53;100048.56;;;18.54;26.63
47742;BME280;33504;52.066;6.096;2024-03-02T11:25:25;100045.24;;;18.58;26.46
47742;BME280;33504;52.066;6.096;2024-03-02T11:28:04;100045.66;;;18.68;25.20
47742;BME280;33504;52.066;6.096;2024-03-02T11:31:05;100040.81;;;19.44;25.97
47742;BME280;33504;52.066;6.096;2024-03-02T11:33:32;100038.52;;;18.69;25.99
47742;BME280;33504;52.066;6.096;2024-03-02T11:36:00;100040.57;;;19.81;25.47
47742;BME280;33504;52.066;6.096;2024-03-02T11:38:30;100042.33;;;19.56;24.96
47742;BME280;33504;52.066;6.096;2024-03-02T11:40:57;100037.13;;;17.99;25.97
47742;BME280;33504;52.066;6.096;2024-03-02T11:43:27;100036.87;;;18.70;26.06
47742;BME280;33504;52.066;6.096;2024-03-02T11:45:58;100032.22;;;18.63;25.75
47742;BME280;33504;52.066;6.096;2024-03-02T11:48:26;100028.05;;;18.68;25.99
47742;BME280;33504;52.066;6.096;2024-03-02T11:50:53;100030.85;;;19.21;26.08
47742;BME280;33504;52.066;6.096;2024-03-02T11:53:22;100032.73;;;18.88;25.86
47742;BME280;33504;52.066;6.096;2024-03-02T11:55:49;100034.28;;;18.76;26.21
47742;BME280;33504;52.066;6.096;2024-03-02T11:58:17;100034.71;;;19.28;24.87
47742;BME280;33504;52.066;6.096;2024-03-02T12:00:44;100024.70;;;18.42;25.77
47742;BME280;33504;52.066;6.096;2024-03-02T12:03:13;100022.60;;;18.43;25.37
47742;BME280;33504;52.066;6.096;2024-03-02T12:05:41;100029.15;;;19.28;24.50
47742;BME280;33504;52.066;6.096;2024-03-02T12:08:09;100019.39;;;18.26;26.03
47742;BME280;33504;52.066;6.096;2024-03-02T12:10:38;100011.66;;;18.66;26.11
47742;BME280;33504;52.066;6.096;2024-03-02T12:13:06;100014.48;;;19.60;25.19
47742;BME280;33504;52.066;6.096;2024-03-02T12:15:35;100008.53;;;19.23;24.88
47742;BME280;33504;52.066;6.096;2024-03-02T12:18:02;100007.41;;;18.94;27.11
47742;BME280;33504;52.066;6.096;2024-03-02T12:20:31;99994.05;;;18.14;27.47
47742;BME280;33504;52.066;6.096;2024-03-02T12:22:59;99993.95;;;18.33;27.38
47742;BME280;33504;52.066;6.096;2024-03-02T12:25:26;100003.46;;;18.28;27.96
47742;BME280;33504;52.066;6.096;2024-03-02T12:27:55;100002.63;;;17.88;27.39
47742;BME280;33504;52.066;6.096;2024-03-02T12:30:22;100000.59;;;18.30;27.53
47742;BME280;33504;52.066;6.096;2024-03-02T12:32:51;99998.20;;;17.71;29.46
47742;BME280;33504;52.066;6.096;2024-03-02T12:35:19;99992.44;;;17.53;28.23
47742;BME280;33504;52.066;6.096;2024-03-02T12:37:47;99994.67;;;18.04;27.73
47742;BME280;33504;52.066;6.096;2024-03-02T12:40:15;99993.32;;;18.21;27.39
47742;BME280;33504;52.066;6.096;2024-03-02T12:42:42;99992.84;;;18.61;27.67
47742;BME280;33504;52.066;6.096;2024-03-02T12:45:10;100002.98;;;19.37;26.93
47742;BME280;33504;52.066;6.096;2024-03-02T12:47:39;100003.03;;;18.87;27.07
47742;BME280;33504;52.066;6.096;2024-03-02T12:50:07;99997.38;;;18.91;26.86
47742;BME280;33504;52.066;6.096;2024-03-02T12:52:34;99999.65;;;19.14;26.23
47742;BME280;33504;52.066;6.096;2024-03-02T12:55:03;100007.11;;;18.99;26.36
47742;BME280;33504;52.066;6.096;2024-03-02T12:57:31;99997.13;;;18.45;26.91
47742;BME280;33504;52.066;6.096;2024-03-02T12:59:59;99996.03;;;18.57;27.10
47742;BME280;33504;52.066;6.096;2024-03-02T13:02:28;99997.28;;;18.37;27.74
47742;BME280;33504;52.066;6.096;2024-03-02T13:04:56;99989.67;;;18.74;27.62